createdAt,value
2019-02-10T00:01:51.492Z,69.59
2019-02-10T00:04:19.319Z,69.19
2019-02-10T00:06:47.211Z,69.25
2019-02-10T00:09:15.018Z,69.61
2019-02-10T00:11:42.957Z,69.48
2019-02-10T00:14:11.390Z,69.27
2019-02-10T00:16:39.142Z,69.64
2019-02-10T00:19:07.089Z,70.02
2019-02-10T00:21:35.061Z,69.97
2019-02-10T00:24:02.954Z,69.76
2019-02-10T00:26:30.882Z,69.70
2019-02-10T00:28:58.840Z,69.67
2019-02-10T00:31:26.796Z,69.75
2019-02-10T00:33:54.587Z,69.91
2019-02-10T00:36:22.469Z,70.16
2019-02-10T00:38:50.411Z,70.24
2019-02-10T00:41:18.288Z,70.28
2019-02-10T00:43:46.434Z,70.46
2019-02-10T00:46:14.205Z,70.25
2019-02-10T00:48:42.092Z,70.16
2019-02-10T00:51:10.165Z,70.24
2019-02-10T00:53:37.989Z,70.50
2019-02-10T00:56:05.952Z,70.72
2019-02-10T00:58:33.809Z,70.74
2019-02-10T01:01:01.724Z,70.95
2019-02-10T01:03:29.526Z,71.05
2019-02-10T01:05:57.414Z,70.88
2019-02-10T01:08:25.538Z,70.70
2019-02-10T01:10:53.434Z,70.58
2019-02-10T01:13:21.357Z,70.84
2019-02-10T01:15:49.109Z,70.75
2019-02-10T01:18:18.591Z,71.13
2019-02-10T01:20:46.601Z,71.02
2019-02-10T01:23:14.652Z,70.96
2019-02-10T01:25:42.481Z,71.05
2019-02-10T01:28:10.371Z,71.15
2019-02-10T01:30:39.111Z,71.41
2019-02-10T01:33:07.052Z,71.32
2019-02-10T01:35:35.190Z,71.25
2019-02-10T01:38:04.395Z,71.40
2019-02-10T01:40:33.022Z,71.87
2019-02-10T01:43:00.867Z,72.12
2019-02-10T01:45:28.724Z,71.96
2019-02-10T01:47:56.581Z,72.11
2019-02-10T01:50:24.785Z,72.23
2019-02-10T01:52:52.704Z,72.58
2019-02-10T01:55:20.472Z,72.50
2019-02-10T01:57:48.618Z,72.05
2019-02-10T02:00:16.573Z,72.25
2019-02-10T02:02:44.762Z,72.49
2019-02-10T02:05:13.031Z,72.38
2019-02-10T02:07:41.012Z,72.35
2019-02-10T02:10:10.797Z,72.33
2019-02-10T02:12:39.051Z,72.31
2019-02-10T02:15:09.870Z,72.30
2019-02-10T02:17:37.810Z,72.56
2019-02-10T02:20:06.122Z,72.56
2019-02-10T02:22:34.103Z,72.69
2019-02-10T02:25:01.970Z,72.59
2019-02-10T02:27:29.906Z,72.66
2019-02-10T02:29:57.661Z,72.78
2019-02-10T02:32:25.586Z,72.93
2019-02-10T02:34:53.477Z,73.14
2019-02-10T02:37:21.320Z,73.79
2019-02-10T02:39:49.106Z,73.64
2019-02-10T02:42:16.974Z,73.76
2019-02-10T02:44:44.824Z,74.03
2019-02-10T02:47:12.951Z,73.66
2019-02-10T02:49:41.539Z,73.73
2019-02-10T02:52:09.994Z,73.25
2019-02-10T02:54:37.918Z,73.33
2019-02-10T02:57:05.679Z,73.23
2019-02-10T02:59:33.461Z,73.16
2019-02-10T03:04:45.866Z,73.52
2019-02-10T03:07:18.164Z,73.29
2019-02-10T03:09:43.442Z,73.59
2019-02-10T03:12:11.307Z,73.39
2019-02-10T03:14:39.992Z,74.19
2019-02-10T03:17:07.978Z,74.14
2019-02-10T03:19:36.039Z,74.63
2019-02-10T03:22:04.067Z,75.05
2019-02-10T03:24:31.926Z,74.72
2019-02-10T03:26:59.833Z,74.91
2019-02-10T03:29:27.743Z,74.92
2019-02-10T03:31:56.151Z,74.77
2019-02-10T03:34:23.938Z,74.57
2019-02-10T03:36:51.805Z,74.31
2019-02-10T03:39:19.703Z,74.35
2019-02-10T03:41:47.781Z,74.27
2019-02-10T03:44:15.598Z,73.92
2019-02-10T03:46:44.413Z,74.34
2019-02-10T03:49:12.251Z,74.02
2019-02-10T03:51:40.064Z,74.29
2019-02-10T03:54:07.925Z,73.51
2019-02-10T03:56:35.938Z,74.06
2019-02-10T03:59:03.979Z,74.11
2019-02-10T04:01:32.007Z,74.50
2019-02-10T04:04:00.042Z,74.45
2019-02-10T04:06:27.938Z,73.93
2019-02-10T04:08:55.878Z,74.31
2019-02-10T04:11:23.685Z,74.26
2019-02-10T04:13:51.520Z,74.28
2019-02-10T04:16:19.400Z,74.66
2019-02-10T04:18:47.264Z,74.52
2019-02-10T04:21:15.174Z,74.18
2019-02-10T04:23:43.143Z,74.40
2019-02-10T04:26:11.099Z,74.29
2019-02-10T04:28:39.847Z,74.73
2019-02-10T04:31:07.714Z,74.86
2019-02-10T04:33:35.695Z,74.59
2019-02-10T04:36:03.590Z,74.43
2019-02-10T04:38:31.392Z,74.45
2019-02-10T04:40:59.238Z,74.64
2019-02-10T04:43:27.024Z,75.21
2019-02-10T04:45:54.848Z,74.81
2019-02-10T04:48:24.588Z,75.30
2019-02-10T04:50:52.479Z,75.40
2019-02-10T04:53:20.767Z,75.67
2019-02-10T04:56:11.498Z,75.56
2019-02-10T04:58:39.386Z,75.82
2019-02-10T05:01:07.446Z,75.50
2019-02-10T05:03:35.482Z,75.81
2019-02-10T05:06:03.517Z,75.88
2019-02-10T05:08:31.337Z,75.97
2019-02-10T05:10:59.324Z,75.87
2019-02-10T05:13:27.192Z,75.68
2019-02-10T05:15:55.045Z,75.60
2019-02-10T05:18:23.422Z,75.63
2019-02-10T05:20:51.331Z,75.73
2019-02-10T05:23:19.906Z,75.70
2019-02-10T05:25:47.899Z,75.79
2019-02-10T05:28:15.749Z,75.72
2019-02-10T05:30:43.646Z,75.51
2019-02-10T05:33:11.531Z,75.91
2019-02-10T05:35:39.401Z,75.62
2019-02-10T05:38:07.202Z,76.29
2019-02-10T05:40:35.188Z,76.12
2019-02-10T05:43:03.022Z,76.06
2019-02-10T05:45:30.790Z,76.23
2019-02-10T05:47:58.634Z,76.16
2019-02-10T05:50:26.513Z,75.78
2019-02-10T05:52:54.974Z,76.07
2019-02-10T05:55:22.915Z,75.87
2019-02-10T05:57:50.753Z,75.99
2019-02-10T06:00:19.335Z,76.13
2019-02-10T06:02:47.128Z,76.35
2019-02-10T06:05:17.821Z,76.36
2019-02-10T06:07:45.742Z,76.52
2019-02-10T06:10:13.605Z,76.54
2019-02-10T06:12:41.513Z,76.75
2019-02-10T06:15:09.628Z,76.98
2019-02-10T06:17:37.661Z,76.84
2019-02-10T06:20:06.005Z,76.95
2019-02-10T06:22:33.887Z,76.86
2019-02-10T06:25:01.788Z,76.87
2019-02-10T06:27:29.881Z,76.88
2019-02-10T06:29:58.088Z,76.91
2019-02-10T06:32:26.173Z,76.51
2019-02-10T06:34:54.043Z,76.27
2019-02-10T06:37:21.936Z,76.52
2019-02-10T06:39:50.436Z,76.67
2019-02-10T06:42:18.371Z,76.74
2019-02-10T06:44:48.421Z,76.73
2019-02-10T06:47:16.521Z,76.58
2019-02-10T06:49:44.506Z,76.52
2019-02-10T06:52:13.368Z,76.43
2019-02-10T06:54:52.367Z,75.90
2019-02-10T06:57:22.194Z,75.85
2019-02-10T06:59:55.565Z,76.39
2019-02-10T07:02:39.529Z,76.09
2019-02-10T07:05:09.104Z,75.93
2019-02-10T07:07:36.987Z,75.45
2019-02-10T07:10:05.715Z,75.54
2019-02-10T07:12:47.134Z,75.12
2019-02-10T07:15:51.194Z,74.63
2019-02-10T07:18:55.126Z,74.13
2019-02-10T07:21:24.585Z,73.98
2019-02-10T07:23:56.465Z,73.69
2019-02-10T07:26:56.569Z,73.42
2019-02-10T07:30:09.994Z,73.19
2019-02-10T07:32:42.064Z,73.01
2019-02-10T07:36:06.361Z,72.60
2019-02-10T07:39:04.884Z,72.38
2019-02-10T07:42:23.633Z,72.02
2019-02-10T07:45:32.906Z,71.86
2019-02-10T07:48:18.546Z,71.90
2019-02-10T07:51:20.066Z,71.55
2019-02-10T07:54:10.800Z,71.36
2019-02-10T07:56:54.388Z,71.13
2019-02-10T07:59:58.911Z,70.83
2019-02-10T08:03:05.788Z,70.78
2019-02-10T08:06:23.188Z,70.74
2019-02-10T08:09:19.599Z,70.68
2019-02-10T08:12:38.357Z,70.69
2019-02-10T08:15:33.386Z,70.81
2019-02-10T08:18:35.001Z,70.79
2019-02-10T08:21:47.173Z,70.78
2019-02-10T08:24:28.254Z,70.97
2019-02-10T08:27:22.982Z,70.98
2019-02-10T08:30:22.160Z,71.05
2019-02-10T08:33:11.741Z,70.56
2019-02-10T08:36:26.631Z,70.63
2019-02-10T08:39:27.913Z,70.44
2019-02-10T08:42:13.136Z,70.59
2019-02-10T08:45:11.604Z,70.45
2019-02-10T08:48:17.392Z,70.25
2019-02-10T08:51:24.907Z,70.22
2019-02-10T08:53:52.903Z,70.28
2019-02-10T08:56:20.981Z,70.00
2019-02-10T08:58:48.897Z,70.32
2019-02-10T09:01:16.829Z,70.59
2019-02-10T09:03:44.611Z,70.65
2019-02-10T09:06:12.449Z,70.75
2019-02-10T09:08:40.749Z,70.63
2019-02-10T09:11:08.859Z,75.99
2019-02-10T09:13:36.667Z,76.37
2019-02-10T09:16:04.652Z,73.80
2019-02-10T09:18:33.062Z,70.07
2019-02-10T09:21:00.962Z,70.18
2019-02-10T09:23:28.835Z,72.80
2019-02-10T09:25:56.759Z,69.48
2019-02-10T09:28:26.456Z,69.24
2019-02-10T09:30:54.460Z,68.12
2019-02-10T09:33:22.961Z,67.56
2019-02-10T09:35:50.895Z,65.35
2019-02-10T09:38:20.037Z,65.88
2019-02-10T09:40:48.042Z,66.24
2019-02-10T09:43:15.912Z,66.83
2019-02-10T09:45:43.866Z,67.36
2019-02-10T09:48:11.877Z,67.55
2019-02-10T09:50:39.755Z,67.69
2019-02-10T09:53:07.741Z,66.86
2019-02-10T09:55:35.672Z,67.05
2019-02-10T09:58:03.696Z,66.46
2019-02-10T10:00:31.759Z,66.26
2019-02-10T10:02:59.696Z,69.29
2019-02-10T10:05:27.652Z,66.21
2019-02-10T10:07:55.713Z,66.24
2019-02-10T10:10:23.636Z,66.47
2019-02-10T10:12:51.603Z,66.04
2019-02-10T10:15:19.583Z,66.25
2019-02-10T10:17:48.678Z,66.60
2019-02-10T10:20:16.722Z,66.16
2019-02-10T10:22:47.228Z,66.03
2019-02-10T10:25:15.151Z,66.15
2019-02-10T10:27:43.057Z,66.13
2019-02-10T10:30:13.529Z,65.84
2019-02-10T10:32:41.389Z,65.79
2019-02-10T10:35:09.564Z,65.74
2019-02-10T10:37:37.813Z,65.79
2019-02-10T10:40:07.419Z,66.06
2019-02-10T10:42:35.385Z,66.17
2019-02-10T10:45:03.513Z,65.97
2019-02-10T10:47:31.445Z,66.17
2019-02-10T10:49:59.377Z,66.10
2019-02-10T10:52:27.178Z,65.75
2019-02-10T10:54:55.205Z,65.62
2019-02-10T10:57:25.123Z,65.30
2019-02-10T10:59:52.901Z,65.47
2019-02-10T11:02:21.040Z,64.80
2019-02-10T11:04:48.950Z,64.81
2019-02-10T11:07:16.792Z,64.82
2019-02-10T11:09:45.066Z,64.93
2019-02-10T11:12:12.961Z,64.95
2019-02-10T11:14:40.882Z,65.10
2019-02-10T11:17:10.536Z,64.74
2019-02-10T11:19:38.611Z,64.32
2019-02-10T11:22:06.506Z,64.02
2019-02-10T11:24:34.418Z,64.42
2019-02-10T11:27:04.389Z,63.53
2019-02-10T11:29:32.316Z,63.15
2019-02-10T11:32:00.236Z,63.03
2019-02-10T11:34:28.050Z,62.89
2019-02-10T11:36:56.556Z,63.22
2019-02-10T11:39:24.508Z,62.81
2019-02-10T11:41:52.425Z,63.14
2019-02-10T11:44:20.251Z,63.08
2019-02-10T11:46:48.164Z,63.04
2019-02-10T11:49:16.053Z,63.28
2019-02-10T11:51:43.850Z,63.15
2019-02-10T11:54:12.858Z,62.47
2019-02-10T11:56:41.192Z,62.33
2019-02-10T11:59:09.074Z,62.09
2019-02-10T12:01:36.947Z,61.90
2019-02-10T12:04:04.843Z,61.00
2019-02-10T12:06:32.811Z,61.19
2019-02-10T12:09:00.719Z,60.54
2019-02-10T12:11:29.316Z,60.62
2019-02-10T12:13:57.099Z,61.07
2019-02-10T12:16:25.093Z,60.73
2019-02-10T12:18:53.146Z,60.37
2019-02-10T12:21:21.364Z,60.05
2019-02-10T12:23:49.177Z,60.36
2019-02-10T12:26:17.043Z,59.69
2019-02-10T12:28:44.953Z,59.11
2019-02-10T12:31:12.944Z,58.11
2019-02-10T12:33:41.034Z,58.91
2019-02-10T12:36:09.102Z,58.90
2019-02-10T12:38:36.897Z,58.09
2019-02-10T12:41:04.978Z,58.53
2019-02-10T12:43:32.814Z,59.27
2019-02-10T12:46:00.917Z,59.74
2019-02-10T12:48:28.860Z,60.00
2019-02-10T12:50:56.925Z,60.38
2019-02-10T12:53:24.793Z,60.55
2019-02-10T12:55:52.989Z,60.54
2019-02-10T12:58:20.960Z,60.68
2019-02-10T13:00:49.077Z,60.13
2019-02-10T13:03:17.148Z,60.20
2019-02-10T13:05:45.067Z,60.33
2019-02-10T13:08:13.144Z,60.04
2019-02-10T13:10:43.847Z,59.67
2019-02-10T13:13:19.153Z,59.90
2019-02-10T13:15:42.073Z,67.64
2019-02-10T13:18:09.895Z,59.53
2019-02-10T13:20:37.860Z,59.63
2019-02-10T13:23:05.946Z,59.26
2019-02-10T13:25:33.849Z,59.29
2019-02-10T13:28:01.718Z,57.84
2019-02-10T13:30:30.431Z,57.43
2019-02-10T13:32:58.506Z,57.36
2019-02-10T13:35:26.455Z,56.21
2019-02-10T13:37:54.279Z,56.40
2019-02-10T13:40:22.180Z,56.42
2019-02-10T13:42:50.286Z,56.77
2019-02-10T13:45:18.234Z,57.40
2019-02-10T13:47:46.326Z,57.08
2019-02-10T13:50:15.098Z,57.28
2019-02-10T13:52:43.083Z,57.22
2019-02-10T13:55:11.605Z,57.97
2019-02-10T13:57:39.624Z,57.87
2019-02-10T14:00:11.019Z,57.22
2019-02-10T14:02:39.462Z,57.82
2019-02-10T14:05:07.488Z,57.83
2019-02-10T14:07:35.361Z,57.66
2019-02-10T14:10:03.589Z,58.14
2019-02-10T14:12:31.477Z,58.20
2019-02-10T14:14:59.378Z,58.19
2019-02-10T14:17:27.911Z,58.59
2019-02-10T14:19:55.823Z,58.29
2019-02-10T14:22:23.677Z,58.89
2019-02-10T14:24:51.570Z,59.00
2019-02-10T14:27:19.487Z,59.43
2019-02-10T14:29:47.658Z,59.51
2019-02-10T14:32:16.037Z,59.71
2019-02-10T14:34:44.736Z,58.84
2019-02-10T14:37:12.718Z,59.24
2019-02-10T14:39:40.533Z,59.14
2019-02-10T14:42:08.489Z,59.06
2019-02-10T14:44:36.417Z,58.88
2019-02-10T14:47:04.703Z,58.61
2019-02-10T14:49:32.505Z,58.98
2019-02-10T14:52:00.402Z,59.08
2019-02-10T14:54:28.218Z,59.21
2019-02-10T14:56:56.109Z,58.77
2019-02-10T14:59:25.709Z,58.96
2019-02-10T15:01:53.629Z,58.91
2019-02-10T15:04:22.098Z,59.28
2019-02-10T15:06:50.118Z,58.98
2019-02-10T15:09:18.696Z,59.18
2019-02-10T15:11:46.600Z,59.57
2019-02-10T15:14:14.585Z,59.68
2019-02-10T15:16:42.385Z,59.22
2019-02-10T15:19:10.254Z,59.35
2019-02-10T15:21:38.070Z,59.21
2019-02-10T15:24:06.038Z,59.70
2019-02-10T15:26:33.833Z,59.43
2019-02-10T15:29:01.679Z,58.96
2019-02-10T15:31:29.586Z,59.12
2019-02-10T15:33:57.770Z,59.22
2019-02-10T15:36:25.637Z,59.13
2019-02-10T15:38:54.271Z,58.97
2019-02-10T15:41:22.220Z,59.15
2019-02-10T15:43:50.198Z,58.96
2019-02-10T15:46:19.088Z,59.19
2019-02-10T15:48:47.069Z,59.40
2019-02-10T15:51:15.279Z,59.68
2019-02-10T15:53:43.143Z,59.97
2019-02-10T15:56:11.573Z,59.75
2019-02-10T15:58:39.516Z,59.39
2019-02-10T16:01:07.874Z,59.53
2019-02-10T16:03:35.835Z,59.74
2019-02-10T16:06:03.834Z,59.33
2019-02-10T16:08:31.745Z,59.61
2019-02-10T16:10:59.689Z,59.52
2019-02-10T16:13:27.553Z,59.25
2019-02-10T16:15:55.467Z,59.37
2019-02-10T16:18:23.358Z,59.13
2019-02-10T16:20:51.157Z,59.29
2019-02-10T16:23:19.141Z,59.03
2019-02-10T16:25:46.945Z,58.98
2019-02-10T16:28:15.632Z,58.60
2019-02-10T16:30:43.525Z,58.85
2019-02-10T16:33:11.500Z,59.64
2019-02-10T16:35:39.843Z,60.07
2019-02-10T16:38:07.726Z,61.16
2019-02-10T16:40:35.566Z,61.26
2019-02-10T16:43:03.563Z,61.84
2019-02-10T16:45:31.691Z,62.09
2019-02-10T16:47:59.595Z,61.93
2019-02-10T16:50:27.549Z,61.75
2019-02-10T16:52:55.339Z,61.62
2019-02-10T16:55:23.211Z,61.81
2019-02-10T16:57:51.049Z,61.95
2019-02-10T17:00:19.137Z,61.88
2019-02-10T17:02:46.976Z,62.36
2019-02-10T17:05:14.887Z,62.47
2019-02-10T17:07:53.225Z,62.42
2019-02-10T17:10:21.482Z,62.51
2019-02-10T17:12:49.514Z,62.56
2019-02-10T17:15:17.496Z,62.81
2019-02-10T17:17:45.312Z,63.07
2019-02-10T17:20:13.281Z,62.99
2019-02-10T17:22:41.204Z,63.08
2019-02-10T17:25:11.481Z,63.07
2019-02-10T17:27:39.984Z,63.29
2019-02-10T17:30:08.397Z,63.49
2019-02-10T17:32:39.224Z,63.52
2019-02-10T17:35:08.056Z,63.73
2019-02-10T17:37:36.158Z,63.79
2019-02-10T17:40:06.463Z,63.96
2019-02-10T17:42:34.787Z,64.79
2019-02-10T17:45:03.042Z,64.01
2019-02-10T17:47:31.045Z,64.14
2019-02-10T17:49:59.006Z,64.38
2019-02-10T17:52:31.807Z,64.26
2019-02-10T17:54:56.785Z,64.49
2019-02-10T17:57:24.711Z,64.40
2019-02-10T17:59:52.607Z,64.62
2019-02-10T18:02:20.541Z,64.63
2019-02-10T18:04:50.088Z,64.90
2019-02-10T18:07:17.880Z,65.13
2019-02-10T18:09:57.966Z,64.96
2019-02-10T18:12:25.854Z,65.05
2019-02-10T18:15:11.850Z,65.07
2019-02-10T18:18:05.910Z,65.06
2019-02-10T18:20:53.020Z,65.37
2019-02-10T18:23:40.410Z,65.08
2019-02-10T18:26:34.015Z,64.40
2019-02-10T18:29:21.594Z,65.01
2019-02-10T18:32:03.472Z,65.14
2019-02-10T18:34:37.630Z,65.44
2019-02-10T18:37:14.780Z,65.50
2019-02-10T18:40:05.263Z,65.43
2019-02-10T18:42:49.579Z,65.25
2019-02-10T18:45:36.891Z,65.80
2019-02-10T18:48:39.406Z,65.71
2019-02-10T18:51:31.335Z,65.84
2019-02-10T18:54:24.696Z,66.61
2019-02-10T18:57:12.637Z,66.37
2019-02-10T18:59:58.804Z,67.50
2019-02-10T19:03:04.496Z,67.05
2019-02-10T19:05:50.225Z,66.48
2019-02-10T19:08:32.183Z,66.10
2019-02-10T19:11:05.820Z,67.04
2019-02-10T19:14:09.500Z,67.34
2019-02-10T19:16:59.207Z,67.40
2019-02-10T19:19:49.567Z,67.51
2019-02-10T19:22:31.791Z,68.46
2019-02-10T19:25:22.018Z,67.88
2019-02-10T19:28:15.344Z,67.86
2019-02-10T19:30:56.080Z,68.06
2019-02-10T19:33:43.509Z,69.44
2019-02-10T19:36:37.223Z,69.65
2019-02-10T19:39:27.347Z,70.48
2019-02-10T19:42:18.094Z,70.65
2019-02-10T19:45:09.294Z,69.70
2019-02-10T19:47:53.801Z,70.81
2019-02-10T19:50:41.228Z,70.32
2019-02-10T19:53:31.639Z,71.06
2019-02-10T19:56:18.300Z,71.71
2019-02-10T19:59:04.345Z,72.12
2019-02-10T20:01:57.714Z,71.65
2019-02-10T20:04:43.982Z,72.29
2019-02-10T20:07:29.065Z,72.84
2019-02-10T20:10:22.549Z,72.29
2019-02-10T20:13:16.712Z,72.96
2019-02-10T20:16:03.974Z,72.41
2019-02-10T20:19:03.275Z,72.25
2019-02-10T20:21:38.781Z,72.25
2019-02-10T20:24:25.561Z,72.21
2019-02-10T20:27:15.707Z,72.76
2019-02-10T20:30:21.223Z,71.97
2019-02-10T20:33:12.269Z,72.12
2019-02-10T20:35:46.497Z,72.33
2019-02-10T20:38:36.771Z,72.18
2019-02-10T20:41:27.293Z,71.48
2019-02-10T20:44:01.725Z,71.28
2019-02-10T20:47:04.674Z,71.53
2019-02-10T20:49:48.137Z,71.55
2019-02-10T20:52:30.358Z,71.26
2019-02-10T20:55:09.962Z,72.24
2019-02-10T20:58:06.676Z,71.55
2019-02-10T21:00:52.762Z,71.97
2019-02-10T21:03:32.767Z,72.05
2019-02-10T21:06:21.841Z,72.60
2019-02-10T21:09:17.937Z,72.24
2019-02-10T21:12:08.358Z,72.51
2019-02-10T21:14:58.955Z,72.93
2019-02-10T21:17:49.266Z,72.82
2019-02-10T21:20:38.703Z,72.47
2019-02-10T21:23:35.021Z,73.08
2019-02-10T21:26:22.374Z,72.67
2019-02-10T21:29:09.764Z,73.22
2019-02-10T21:32:06.129Z,73.03
2019-02-10T21:34:48.740Z,74.00
2019-02-10T21:37:39.293Z,73.79
2019-02-10T21:40:16.466Z,74.29
2019-02-10T21:42:57.831Z,73.98
2019-02-10T21:45:47.907Z,74.43
2019-02-10T21:48:22.791Z,74.22
2019-02-10T21:50:51.109Z,74.56
2019-02-10T21:53:19.039Z,74.84
2019-02-10T21:55:46.992Z,74.23
2019-02-10T21:58:14.905Z,74.52
2019-02-10T22:00:42.863Z,74.97
2019-02-10T22:03:10.745Z,74.27
2019-02-10T22:05:38.772Z,74.33
2019-02-10T22:08:06.545Z,74.60
2019-02-10T22:10:34.633Z,74.41
2019-02-10T22:13:02.543Z,75.13
2019-02-10T22:15:30.505Z,75.41
2019-02-10T22:17:58.447Z,74.85
2019-02-10T22:20:26.248Z,75.86
2019-02-10T22:22:54.224Z,74.91
2019-02-10T22:25:22.231Z,75.53
2019-02-10T22:27:50.099Z,75.31
2019-02-10T22:30:18.858Z,74.91
2019-02-10T22:32:46.926Z,74.79
2019-02-10T22:35:14.780Z,74.86
2019-02-10T22:37:42.851Z,74.96
2019-02-10T22:40:10.924Z,75.36
2019-02-10T22:42:45.379Z,74.98
2019-02-10T22:45:10.088Z,75.11
2019-02-10T22:47:38.038Z,74.84
2019-02-10T22:50:09.526Z,74.57
2019-02-10T22:52:37.718Z,74.71
2019-02-10T22:55:05.793Z,74.65
2019-02-10T22:57:33.653Z,74.96
2019-02-10T23:00:01.585Z,75.11
2019-02-10T23:02:32.359Z,75.13
2019-02-10T23:05:00.325Z,75.50
2019-02-10T23:07:29.151Z,75.00
2019-02-10T23:09:57.257Z,74.84
2019-02-10T23:12:25.165Z,74.81
2019-02-10T23:14:53.067Z,75.20
2019-02-10T23:17:21.107Z,74.91
2019-02-10T23:19:49.059Z,75.03
2019-02-10T23:22:17.038Z,75.11
2019-02-10T23:24:44.854Z,75.22
2019-02-10T23:27:12.831Z,74.97
2019-02-10T23:29:40.725Z,75.03
2019-02-10T23:32:08.706Z,75.10
2019-02-10T23:34:36.530Z,75.28
2019-02-10T23:37:04.409Z,75.35
2019-02-10T23:39:32.508Z,75.30
2019-02-10T23:42:00.303Z,75.52
2019-02-10T23:44:28.292Z,75.18
2019-02-10T23:46:56.976Z,75.00
2019-02-10T23:49:24.987Z,74.92
2019-02-10T23:51:52.893Z,75.00
2019-02-10T23:54:20.832Z,74.88
2019-02-10T23:56:48.825Z,74.64
2019-02-10T23:59:16.737Z,74.06
